Time;durP1;ratioP1;P1;durP2;ratioP2;P2;SDS_P1;SDS_P2;PMS_P1;PMS_P2;Temp;Humidity;BMP_temperature;BMP_pressure;BME280_temperature;BME280_humidity;BME280_pressure;Samples;Min_cycle;Max_cycle;Signal;HPM_P1;HPM_P2
2022/06/20 00:00:58;;;;;;;;;;;28.00;64.70;;;;;;5081780;28;19947;-81
2022/06/20 00:03:28;;;;;;;;;;;28.00;64.60;;;;;;5160295;22;20127;-80
2022/06/20 00:05:55;;;;;;;;;;;27.90;64.70;;;;;;5097051;28;20391;-81
2022/06/20 00:08:22;;;;;;;;;;;27.90;64.80;;;;;;5078143;28;19924;-80
2022/06/20 00:10:50;;;;;;;;;;;27.80;64.70;;;;;;5075493;28;19935;-80
2022/06/20 00:13:21;;;;;;;;;;;27.80;64.50;;;;;;5095485;27;20351;-80
2022/06/20 00:15:48;;;;;;;;;;;27.80;64.60;;;;;;5078999;28;19930;-81
2022/06/20 00:18:15;;;;;;;;;;;27.70;64.50;;;;;;5074941;28;20019;-80
2022/06/20 00:20:42;;;;;;;;;;;27.70;64.60;;;;;;5096219;28;20337;-81
2022/06/20 00:23:09;;;;;;;;;;;27.70;64.60;;;;;;5093253;28;20313;-80
2022/06/20 00:25:37;;;;;;;;;;;27.60;64.60;;;;;;5100136;28;20024;-80
2022/06/20 00:28:04;;;;;;;;;;;27.60;64.70;;;;;;5107973;28;19924;-81
2022/06/20 00:30:32;;;;;;;;;;;27.50;64.80;;;;;;5101583;28;19932;-80
2022/06/20 00:32:59;;;;;;;;;;;27.50;64.60;;;;;;5096205;28;20007;-80
2022/06/20 00:35:26;;;;;;;;;;;27.50;64.90;;;;;;5091597;28;20435;-80
2022/06/20 00:37:54;;;;;;;;;;;27.40;65.00;;;;;;5094806;28;20216;-81
2022/06/20 00:40:26;;;;;;;;;;;27.40;65.00;;;;;;5093276;28;19932;-81
2022/06/20 00:42:53;;;;;;;;;;;27.30;65.00;;;;;;5077487;28;20417;-80
2022/06/20 00:45:21;;;;;;;;;;;27.30;65.20;;;;;;5097885;28;19947;-81
2022/06/20 00:47:51;;;;;;;;;;;27.20;65.30;;;;;;5103666;27;19924;-81
2022/06/20 00:50:20;;;;;;;;;;;27.20;65.30;;;;;;5101747;28;19928;-80
2022/06/20 00:52:50;;;;;;;;;;;27.20;65.40;;;;;;5099324;28;19935;-81
2022/06/20 00:55:19;;;;;;;;;;;27.20;65.60;;;;;;5103165;28;19949;-81
2022/06/20 00:57:49;;;;;;;;;;;27.10;65.60;;;;;;5099887;27;19928;-81
2022/06/20 01:00:18;;;;;;;;;;;27.10;65.70;;;;;;5083310;28;19924;-80
2022/06/20 01:02:47;;;;;;;;;;;27.10;65.70;;;;;;5086384;28;19930;-80
2022/06/20 01:05:18;;;;;;;;;;;27.00;65.60;;;;;;5114395;27;19927;-81
2022/06/20 01:07:49;;;;;;;;;;;27.00;65.60;;;;;;5106219;27;19932;-80
2022/06/20 01:10:16;;;;;;;;;;;27.00;65.70;;;;;;5078808;28;19993;-80
2022/06/20 01:12:47;;;;;;;;;;;26.90;65.70;;;;;;5080167;28;19950;-80
2022/06/20 01:15:19;;;;;;;;;;;26.90;65.80;;;;;;5100941;28;19938;-80
2022/06/20 01:17:46;;;;;;;;;;;26.90;65.90;;;;;;5101027;27;19932;-81
2022/06/20 01:20:20;;;;;;;;;;;26.80;65.90;;;;;;5101350;28;19923;-80
2022/06/20 01:22:51;;;;;;;;;;;26.80;65.90;;;;;;5079134;28;19938;-80
2022/06/20 01:25:26;;;;;;;;;;;26.80;65.90;;;;;;5081410;28;19936;-80
2022/06/20 01:27:54;;;;;;;;;;;26.70;66.00;;;;;;5103089;28;19928;-80
2022/06/20 01:30:24;;;;;;;;;;;26.70;66.90;;;;;;5099815;27;21815;-81
2022/06/20 01:32:51;;;;;;;;;;;26.60;65.80;;;;;;5100515;27;19927;-80
2022/06/20 01:38:00;;;;;;;;;;;26.60;65.80;;;;;;5105237;27;19923;-80
2022/06/20 01:40:29;;;;;;;;;;;26.50;65.80;;;;;;5103133;27;19932;-81
2022/06/20 01:42:56;;;;;;;;;;;26.50;65.70;;;;;;5107343;27;19924;-81
2022/06/20 01:48:09;;;;;;;;;;;;;;;;;;5103474;28;19927;-81
2022/06/20 01:50:37;;;;;;;;;;;26.50;78.90;;;;;;5079425;28;20020;-80
2022/06/20 01:53:05;;;;;;;;;;;;;;;;;;5081597;28;19985;-80
2022/06/20 01:55:32;;;;;;;;;;;26.40;65.00;;;;;;5102065;27;19931;-79
2022/06/20 01:58:06;;;;;;;;;;;26.30;65.40;;;;;;5084406;28;20293;-79
2022/06/20 02:00:34;;;;;;;;;;;26.30;65.80;;;;;;5095106;27;20415;-80
2022/06/20 02:03:05;;;;;;;;;;;26.30;65.90;;;;;;5100885;27;19968;-80
2022/06/20 02:05:32;;;;;;;;;;;26.20;66.10;;;;;;5100364;27;20285;-80
2022/06/20 02:08:01;;;;;;;;;;;26.20;66.20;;;;;;5098744;27;19928;-79
2022/06/20 02:10:31;;;;;;;;;;;26.20;66.30;;;;;;5096593;28;20529;-79
2022/06/20 02:12:59;;;;;;;;;;;26.10;66.40;;;;;;5102294;27;19931;-80
2022/06/20 02:15:28;;;;;;;;;;;26.10;66.60;;;;;;5106303;27;20294;-80
2022/06/20 02:17:56;;;;;;;;;;;26.10;66.70;;;;;;5083290;28;19932;-80
2022/06/20 02:20:24;;;;;;;;;;;26.10;66.70;;;;;;5086618;28;19931;-80
2022/06/20 02:22:52;;;;;;;;;;;26.00;66.80;;;;;;5082138;28;19932;-80
2022/06/20 02:25:21;;;;;;;;;;;26.00;67.00;;;;;;5099417;27;19938;-80
2022/06/20 02:27:51;;;;;;;;;;;26.00;67.10;;;;;;5098958;28;19928;-80
2022/06/20 02:30:18;;;;;;;;;;;26.00;67.20;;;;;;5098444;27;20241;-79
2022/06/20 02:32:47;;;;;;;;;;;25.90;67.10;;;;;;5099856;27;19935;-80
2022/06/20 02:35:16;;;;;;;;;;;25.90;67.30;;;;;;5081368;28;19931;-80
2022/06/20 02:37:43;;;;;;;;;;;25.90;67.40;;;;;;5100837;28;19928;-80
2022/06/20 02:40:12;;;;;;;;;;;25.80;67.20;;;;;;5099680;27;19931;-80
2022/06/20 02:42:43;;;;;;;;;;;25.80;67.40;;;;;;5081687;28;19938;-80
2022/06/20 02:45:11;;;;;;;;;;;25.80;67.50;;;;;;5101724;27;20023;-79
2022/06/20 02:47:40;;;;;;;;;;;25.80;67.50;;;;;;5102232;27;20625;-80
2022/06/20 02:50:10;;;;;;;;;;;25.70;67.60;;;;;;5104806;28;19930;-80
2022/06/20 02:52:39;;;;;;;;;;;25.70;67.70;;;;;;5105704;27;20644;-80
2022/06/20 02:55:07;;;;;;;;;;;25.70;67.60;;;;;;5107393;27;19928;-80
2022/06/20 02:57:35;;;;;;;;;;;25.60;67.70;;;;;;5103199;28;19932;-79
2022/06/20 03:00:04;;;;;;;;;;;25.60;67.80;;;;;;5075225;28;19969;-79
2022/06/20 03:02:33;;;;;;;;;;;25.60;67.90;;;;;;5100732;28;19931;-80
2022/06/20 03:05:01;;;;;;;;;;;25.60;67.90;;;;;;5099615;28;19935;-80
2022/06/20 03:07:32;;;;;;;;;;;25.50;67.90;;;;;;5082597;28;20025;-80
2022/06/20 03:10:02;;;;;;;;;;;25.50;67.90;;;;;;5082327;28;19935;-79
2022/06/20 03:12:31;;;;;;;;;;;25.50;68.00;;;;;;5078620;28;20406;-80
2022/06/20 03:15:00;;;;;;;;;;;25.50;67.90;;;;;;5100578;28;19992;-80
2022/06/20 03:17:27;;;;;;;;;;;25.40;67.80;;;;;;5084177;28;19932;-80
2022/06/20 03:19:56;;;;;;;;;;;25.40;67.80;;;;;;5096915;27;21251;-80
2022/06/20 03:22:24;;;;;;;;;;;25.40;68.00;;;;;;5082358;28;19932;-80
2022/06/20 03:24:53;;;;;;;;;;;25.30;67.40;;;;;;5083015;28;20136;-79
2022/06/20 03:27:23;;;;;;;;;;;25.30;68.00;;;;;;5106771;28;20005;-80
2022/06/20 03:29:54;;;;;;;;;;;25.30;68.10;;;;;;5102098;27;19942;-79
2022/06/20 03:32:21;;;;;;;;;;;25.30;68.10;;;;;;5102112;28;19930;-79
2022/06/20 03:34:48;;;;;;;;;;;25.20;68.00;;;;;;5097635;28;19930;-80
2022/06/20 03:37:15;;;;;;;;;;;25.20;68.10;;;;;;5093507;27;19924;-80
2022/06/20 03:39:44;;;;;;;;;;;25.20;68.00;;;;;;5082723;28;19941;-80
2022/06/20 03:42:12;;;;;;;;;;;25.20;68.90;;;;;;5099606;27;19924;-79
2022/06/20 03:44:41;;;;;;;;;;;25.10;68.10;;;;;;5098490;27;19931;-80
2022/06/20 03:47:10;;;;;;;;;;;25.10;68.30;;;;;;5100586;28;20438;-80
2022/06/20 03:49:40;;;;;;;;;;;25.10;68.20;;;;;;5099960;27;20052;-78
2022/06/20 03:52:09;;;;;;;;;;;25.00;68.30;;;;;;5101887;28;19928;-81
2022/06/20 03:54:40;;;;;;;;;;;25.00;68.30;;;;;;5100269;28;20321;-77
2022/06/20 03:57:10;;;;;;;;;;;25.00;68.20;;;;;;5098973;28;19950;-79
2022/06/20 03:59:41;;;;;;;;;;;25.00;68.60;;;;;;5077352;28;19936;-79
2022/06/20 04:02:16;;;;;;;;;;;24.90;68.50;;;;;;5100242;28;19928;-78
2022/06/20 04:04:46;;;;;;;;;;;24.90;68.70;;;;;;5100326;28;19931;-78
2022/06/20 04:07:18;;;;;;;;;;;24.90;68.90;;;;;;5089452;28;20408;-79
2022/06/20 04:12:35;;;;;;;;;;;24.80;68.80;;;;;;5088254;28;19963;-78
2022/06/20 04:15:09;;;;;;;;;;;24.80;69.00;;;;;;5106705;27;19931;-78
2022/06/20 04:20:29;;;;;;;;;;;24.70;68.90;;;;;;5085170;28;20289;-78
2022/06/20 04:22:57;;;;;;;;;;;24.70;68.90;;;;;;5103905;28;19924;-78
2022/06/20 04:25:28;;;;;;;;;;;24.70;69.10;;;;;;5101378;28;20397;-76
2022/06/20 04:27:56;;;;;;;;;;;24.70;69.20;;;;;;5101640;28;20458;-78
2022/06/20 04:30:27;;;;;;;;;;;24.60;69.10;;;;;;5087797;28;19927;-78
2022/06/20 04:32:56;;;;;;;;;;;24.60;69.10;;;;;;5085633;28;19924;-78
2022/06/20 04:35:25;;;;;;;;;;;24.60;69.10;;;;;;5102143;28;19938;-78
2022/06/20 04:37:55;;;;;;;;;;;24.60;69.20;;;;;;5085458;28;19924;-78
2022/06/20 04:40:24;;;;;;;;;;;24.60;69.30;;;;;;5109000;28;19931;-79
2022/06/20 04:42:52;;;;;;;;;;;24.50;69.90;;;;;;5102712;28;19924;-78
2022/06/20 04:45:21;;;;;;;;;;;24.50;69.40;;;;;;5107514;28;20052;-79
2022/06/20 04:47:53;;;;;;;;;;;24.50;69.50;;;;;;5101535;28;19928;-80
2022/06/20 04:50:21;;;;;;;;;;;24.50;69.60;;;;;;5102059;28;20309;-82
2022/06/20 04:52:49;;;;;;;;;;;24.50;69.50;;;;;;5093097;28;19931;-76
2022/06/20 04:55:21;;;;;;;;;;;24.50;69.70;;;;;;5099594;28;20394;-79
2022/06/20 04:57:48;;;;;;;;;;;24.50;69.80;;;;;;5086521;28;19924;-78
2022/06/20 05:00:19;;;;;;;;;;;24.40;69.80;;;;;;5088306;28;19923;-81
2022/06/20 05:02:46;;;;;;;;;;;24.40;69.80;;;;;;5103314;28;19931;-77
2022/06/20 05:05:18;;;;;;;;;;;24.40;70.00;;;;;;5105890;28;19928;-80
2022/06/20 05:07:45;;;;;;;;;;;24.40;70.10;;;;;;5104845;28;20041;-79
2022/06/20 05:10:16;;;;;;;;;;;24.40;70.60;;;;;;5100816;28;20271;-78
2022/06/20 05:12:48;;;;;;;;;;;24.40;70.90;;;;;;5097495;28;19947;-78
2022/06/20 05:15:19;;;;;;;;;;;24.40;71.10;;;;;;5098722;28;19932;-77
2022/06/20 05:17:48;;;;;;;;;;;24.40;71.30;;;;;;5100933;28;19928;-78
2022/06/20 05:20:23;;;;;;;;;;;24.30;71.40;;;;;;5101149;28;19928;-78
2022/06/20 05:22:53;;;;;;;;;;;24.30;71.20;;;;;;5095101;28;19931;-78
2022/06/20 05:25:22;;;;;;;;;;;24.30;71.60;;;;;;5085670;28;20051;-78
2022/06/20 05:27:50;;;;;;;;;;;24.30;71.60;;;;;;5085526;28;19959;-78
2022/06/20 05:30:19;;;;;;;;;;;24.30;71.60;;;;;;5106490;28;20377;-78
2022/06/20 05:32:49;;;;;;;;;;;24.30;71.60;;;;;;5086111;28;19953;-78
2022/06/20 05:35:20;;;;;;;;;;;24.30;72.30;;;;;;5105105;28;20626;-78
2022/06/20 05:37:48;;;;;;;;;;;24.20;71.40;;;;;;5105176;28;19971;-77
2022/06/20 05:40:19;;;;;;;;;;;24.20;71.50;;;;;;5088258;28;20018;-78
2022/06/20 05:42:46;;;;;;;;;;;24.20;71.80;;;;;;5102928;27;19928;-78
2022/06/20 05:45:14;;;;;;;;;;;24.20;72.20;;;;;;5106534;27;20568;-78
2022/06/20 05:47:42;;;;;;;;;;;24.20;71.50;;;;;;5104483;28;19924;-78
2022/06/20 05:50:17;;;;;;;;;;;24.20;71.60;;;;;;5105903;28;19932;-77
2022/06/20 05:52:46;;;;;;;;;;;24.10;71.50;;;;;;5109675;27;20361;-78
2022/06/20 05:55:16;;;;;;;;;;;24.10;71.50;;;;;;5090503;28;19924;-78
2022/06/20 05:57:45;;;;;;;;;;;24.10;71.50;;;;;;5108738;28;19924;-78
2022/06/20 06:00:16;;;;;;;;;;;24.10;71.70;;;;;;5095737;27;19959;-79
2022/06/20 06:02:47;;;;;;;;;;;24.10;71.70;;;;;;5096533;28;20370;-78
2022/06/20 06:05:17;;;;;;;;;;;24.10;71.70;;;;;;5100521;28;19927;-78
2022/06/20 06:07:49;;;;;;;;;;;24.10;71.80;;;;;;5077523;28;20378;-78
2022/06/20 06:10:23;;;;;;;;;;;24.10;71.90;;;;;;5107419;27;19936;-79
2022/06/20 06:12:53;;;;;;;;;;;24.10;71.90;;;;;;5084939;28;20459;-79
2022/06/20 06:15:22;;;;;;;;;;;24.10;71.90;;;;;;5106059;27;19928;-79
2022/06/20 06:17:55;;;;;;;;;;;24.10;71.90;;;;;;5097090;28;19936;-78
2022/06/20 06:20:23;;;;;;;;;;;24.10;71.80;;;;;;5082644;28;20003;-79
2022/06/20 06:22:53;;;;;;;;;;;24.10;71.80;;;;;;5083871;28;19924;-79
2022/06/20 06:25:24;;;;;;;;;;;24.10;71.80;;;;;;5102558;27;19931;-79
2022/06/20 06:27:52;;;;;;;;;;;24.10;71.70;;;;;;5102166;27;20316;-79
2022/06/20 06:30:20;;;;;;;;;;;24.10;71.70;;;;;;5101959;27;20350;-79
2022/06/20 06:32:50;;;;;;;;;;;24.10;71.80;;;;;;5097923;28;21252;-79
2022/06/20 06:35:20;;;;;;;;;;;24.10;71.80;;;;;;5108507;27;19924;-79
2022/06/20 06:37:52;;;;;;;;;;;24.10;71.70;;;;;;5101709;27;20488;-79
2022/06/20 06:40:24;;;;;;;;;;;24.10;71.80;;;;;;5105916;27;19935;-80
2022/06/20 06:42:54;;;;;;;;;;;24.10;71.80;;;;;;5085960;28;19930;-79
2022/06/20 06:45:25;;;;;;;;;;;24.10;71.90;;;;;;5094223;28;19970;-79
2022/06/20 06:47:56;;;;;;;;;;;24.00;71.90;;;;;;5116532;27;20320;-79
2022/06/20 06:50:27;;;;;;;;;;;24.10;72.00;;;;;;5104464;28;20455;-79
2022/06/20 06:52:58;;;;;;;;;;;24.10;72.10;;;;;;5106401;27;19950;-80
2022/06/20 06:55:31;;;;;;;;;;;24.10;72.00;;;;;;5104906;28;19947;-79
2022/06/20 06:58:02;;;;;;;;;;;24.10;72.10;;;;;;5101274;27;19936;-79
2022/06/20 07:00:31;;;;;;;;;;;24.10;72.10;;;;;;5105693;27;19928;-79
2022/06/20 07:03:02;;;;;;;;;;;24.10;72.20;;;;;;5102955;28;19927;-79
2022/06/20 07:05:33;;;;;;;;;;;24.10;72.30;;;;;;5106041;27;19973;-79
2022/06/20 07:08:04;;;;;;;;;;;24.10;72.40;;;;;;5103457;28;19928;-79
2022/06/20 07:10:35;;;;;;;;;;;24.10;72.30;;;;;;5105034;28;20474;-79
2022/06/20 07:13:05;;;;;;;;;;;24.10;72.30;;;;;;5100535;28;20024;-79
2022/06/20 07:15:33;;;;;;;;;;;24.20;72.60;;;;;;5102919;28;19927;-80
2022/06/20 07:18:02;;;;;;;;;;;24.20;72.60;;;;;;5099427;28;20383;-79
2022/06/20 07:20:31;;;;;;;;;;;24.20;72.30;;;;;;5100488;27;19949;-79
2022/06/20 07:22:59;;;;;;;;;;;24.20;72.60;;;;;;5102569;27;20408;-79
2022/06/20 07:25:30;;;;;;;;;;;24.20;72.60;;;;;;5101284;28;19932;-79
2022/06/20 07:28:02;;;;;;;;;;;24.20;72.60;;;;;;5101863;28;19938;-79
2022/06/20 07:30:30;;;;;;;;;;;24.30;72.70;;;;;;5100929;27;20389;-78
2022/06/20 07:33:00;;;;;;;;;;;24.30;73.10;;;;;;5097748;28;20118;-78
2022/06/20 07:35:29;;;;;;;;;;;24.30;73.80;;;;;;5096158;27;19935;-78
2022/06/20 07:38:00;;;;;;;;;;;24.30;73.90;;;;;;5081932;28;19924;-78
2022/06/20 07:40:30;;;;;;;;;;;24.30;73.90;;;;;;5097558;27;19938;-78
2022/06/20 07:43:01;;;;;;;;;;;24.30;74.20;;;;;;5101633;27;19924;-78
2022/06/20 07:45:30;;;;;;;;;;;24.30;74.30;;;;;;5094756;28;19939;-78
2022/06/20 07:47:59;;;;;;;;;;;24.30;73.90;;;;;;5100474;27;19924;-78
2022/06/20 07:50:28;;;;;;;;;;;24.30;73.90;;;;;;5086244;28;19924;-78
2022/06/20 07:52:57;;;;;;;;;;;24.30;74.10;;;;;;5097937;28;20416;-78
2022/06/20 07:55:25;;;;;;;;;;;24.30;74.10;;;;;;5101782;28;19954;-78
2022/06/20 07:57:54;;;;;;;;;;;24.30;74.30;;;;;;5103471;28;19980;-78
2022/06/20 08:00:24;;;;;;;;;;;24.30;74.60;;;;;;5098509;28;19924;-77
2022/06/20 08:02:55;;;;;;;;;;;24.30;74.70;;;;;;5076621;28;19932;-78
2022/06/20 08:05:26;;;;;;;;;;;24.30;74.60;;;;;;5099674;28;19991;-77
2022/06/20 08:07:55;;;;;;;;;;;24.30;74.30;;;;;;5080632;28;20661;-77
2022/06/20 08:10:26;;;;;;;;;;;24.30;74.20;;;;;;5098534;28;19931;-78
2022/06/20 08:12:57;;;;;;;;;;;24.30;74.30;;;;;;5094739;27;19931;-77
2022/06/20 08:15:28;;;;;;;;;;;24.30;74.40;;;;;;5098362;28;19969;-77
2022/06/20 08:17:55;;;;;;;;;;;24.30;74.20;;;;;;5099539;28;19923;-80
2022/06/20 08:20:23;;;;;;;;;;;24.30;74.60;;;;;;5078107;28;19928;-77
2022/06/20 08:22:54;;;;;;;;;;;24.30;74.80;;;;;;5101834;28;20378;-77
2022/06/20 08:25:22;;;;;;;;;;;24.30;74.90;;;;;;5104028;28;19923;-78
2022/06/20 08:27:51;;;;;;;;;;;24.30;75.00;;;;;;5085533;28;19951;-78
2022/06/20 08:30:20;;;;;;;;;;;24.30;74.80;;;;;;5102801;28;19931;-78
2022/06/20 08:32:56;;;;;;;;;;;24.30;74.80;;;;;;5103354;28;19931;-78
2022/06/20 08:35:27;;;;;;;;;;;24.30;74.90;;;;;;5104305;28;21158;-78
2022/06/20 08:37:57;;;;;;;;;;;24.30;75.00;;;;;;5074594;28;19931;-79
2022/06/20 08:43:37;;;;;;;;;;;24.30;75.10;;;;;;5097726;28;19932;-78
2022/06/20 08:46:17;;;;;;;;;;;24.30;75.00;;;;;;5087546;28;19974;-78
2022/06/20 08:49:05;;;;;;;;;;;24.30;75.00;;;;;;5080840;28;19924;-77
2022/06/20 08:52:08;;;;;;;;;;;24.40;75.20;;;;;;5058519;28;19936;-78
2022/06/20 08:54:53;;;;;;;;;;;24.30;74.90;;;;;;5093988;28;19946;-78
2022/06/20 08:57:26;;;;;;;;;;;24.40;75.20;;;;;;5074050;28;21808;-78
2022/06/20 09:00:06;;;;;;;;;;;24.40;75.10;;;;;;5074667;28;19928;-78
2022/06/20 09:02:44;;;;;;;;;;;24.40;75.10;;;;;;5099235;28;19927;-77
2022/06/20 09:05:20;;;;;;;;;;;24.40;75.10;;;;;;5102034;27;20016;-77
2022/06/20 09:08:03;;;;;;;;;;;24.40;74.90;;;;;;5101147;27;19931;-77
2022/06/20 09:10:39;;;;;;;;;;;24.40;75.00;;;;;;5103124;27;19951;-77
2022/06/20 09:13:17;;;;;;;;;;;24.40;74.80;;;;;;5102439;28;20454;-78
2022/06/20 09:15:47;;;;;;;;;;;24.40;74.40;;;;;;5103302;27;19923;-78
2022/06/20 09:18:20;;;;;;;;;;;24.40;74.20;;;;;;5098731;28;19931;-78
2022/06/20 09:20:52;;;;;;;;;;;24.40;74.30;;;;;;5096027;28;19928;-78
2022/06/20 09:23:31;;;;;;;;;;;24.40;74.20;;;;;;5099112;28;19936;-77
2022/06/20 09:26:04;;;;;;;;;;;24.50;74.30;;;;;;5100218;27;19924;-78
2022/06/20 09:28:46;;;;;;;;;;;24.50;74.20;;;;;;5099475;27;20337;-78
2022/06/20 09:31:21;;;;;;;;;;;24.50;73.80;;;;;;5094393;27;19931;-78
2022/06/20 09:34:06;;;;;;;;;;;24.50;73.50;;;;;;5105275;27;20041;-78
2022/06/20 09:36:51;;;;;;;;;;;24.50;72.70;;;;;;5100325;27;19931;-78
2022/06/20 09:39:35;;;;;;;;;;;24.50;72.60;;;;;;5098376;27;20170;-78
2022/06/20 09:42:15;;;;;;;;;;;24.50;72.70;;;;;;5079530;28;19966;-78
2022/06/20 09:44:47;;;;;;;;;;;24.50;72.30;;;;;;5097996;27;19923;-78
2022/06/20 09:47:25;;;;;;;;;;;24.50;72.20;;;;;;5100490;28;20062;-78
2022/06/20 09:49:57;;;;;;;;;;;24.50;72.50;;;;;;5099834;28;20565;-78
2022/06/20 09:52:30;;;;;;;;;;;24.60;72.60;;;;;;5098294;27;19935;-78
2022/06/20 09:55:03;;;;;;;;;;;24.60;72.90;;;;;;5100314;28;20602;-78
2022/06/20 09:57:35;;;;;;;;;;;24.60;72.90;;;;;;5097972;27;20014;-77
2022/06/20 10:00:05;;;;;;;;;;;24.60;72.80;;;;;;5098959;27;19946;-78
2022/06/20 10:02:44;;;;;;;;;;;24.60;72.90;;;;;;5100914;28;20328;-78
2022/06/20 10:05:16;;;;;;;;;;;24.70;72.90;;;;;;5094943;28;20252;-78
2022/06/20 10:07:47;;;;;;;;;;;24.70;73.10;;;;;;5094998;28;19924;-78
2022/06/20 10:10:15;;;;;;;;;;;24.70;73.20;;;;;;5100880;28;19932;-78
2022/06/20 10:12:47;;;;;;;;;;;24.70;73.20;;;;;;5099007;27;19931;-78
2022/06/20 10:15:19;;;;;;;;;;;24.70;73.30;;;;;;5099039;27;19931;-77
2022/06/20 10:17:53;;;;;;;;;;;24.70;73.30;;;;;;5099741;28;19923;-77
2022/06/20 10:20:28;;;;;;;;;;;24.70;73.50;;;;;;5078273;28;19932;-78
2022/06/20 10:22:59;;;;;;;;;;;24.70;73.60;;;;;;5102005;27;19931;-78
2022/06/20 10:25:33;;;;;;;;;;;24.70;73.70;;;;;;5082527;28;19931;-82
2022/06/20 10:28:03;;;;;;;;;;;24.80;73.90;;;;;;5102705;27;19924;-81
2022/06/20 10:30:36;;;;;;;;;;;24.80;74.10;;;;;;5100638;28;20620;-80
2022/06/20 10:33:10;;;;;;;;;;;24.80;74.10;;;;;;5102912;28;19931;-79
2022/06/20 10:35:51;;;;;;;;;;;24.80;74.10;;;;;;5104445;27;19924;-81
2022/06/20 10:38:29;;;;;;;;;;;24.80;74.30;;;;;;5100720;27;19931;-83
2022/06/20 10:41:02;;;;;;;;;;;24.90;74.90;;;;;;5085523;28;19939;-81
2022/06/20 10:43:35;;;;;;;;;;;24.90;74.50;;;;;;5110530;27;19928;-80
2022/06/20 10:46:08;;;;;;;;;;;24.90;74.30;;;;;;5096733;28;19924;-84
2022/06/20 10:48:47;;;;;;;;;;;24.90;74.10;;;;;;5114260;28;19931;-85
2022/06/20 10:51:18;;;;;;;;;;;25.00;73.90;;;;;;5106843;28;20186;-80
2022/06/20 10:53:52;;;;;;;;;;;24.90;72.40;;;;;;5086361;28;19938;-80
2022/06/20 10:56:23;;;;;;;;;;;25.00;71.90;;;;;;5100006;27;19978;-80
2022/06/20 10:58:56;;;;;;;;;;;25.10;72.00;;;;;;5100981;28;19924;-79
2022/06/20 11:01:25;;;;;;;;;;;25.10;72.00;;;;;;5084031;27;19924;-78
2022/06/20 11:04:03;;;;;;;;;;;25.10;71.90;;;;;;5100056;27;19928;-80
2022/06/20 11:06:38;;;;;;;;;;;25.10;72.20;;;;;;5087588;28;19928;-77
2022/06/20 11:09:09;;;;;;;;;;;25.20;72.40;;;;;;5096330;28;20800;-77
2022/06/20 11:11:42;;;;;;;;;;;25.20;72.50;;;;;;5093872;27;19928;-78
2022/06/20 11:14:14;;;;;;;;;;;25.20;72.40;;;;;;5083877;28;20023;-77
2022/06/20 11:16:44;;;;;;;;;;;25.20;72.50;;;;;;5107383;28;19965;-78
2022/06/20 11:19:19;;;;;;;;;;;25.20;72.20;;;;;;5083974;28;19931;-77
2022/06/20 11:21:53;;;;;;;;;;;25.20;72.00;;;;;;5097860;28;19950;-77
2022/06/20 11:24:26;;;;;;;;;;;25.20;72.20;;;;;;5101529;28;19924;-77
2022/06/20 11:27:01;;;;;;;;;;;25.30;72.30;;;;;;5102512;28;19924;-78
2022/06/20 11:29:34;;;;;;;;;;;25.30;71.40;;;;;;5085451;28;19927;-78
2022/06/20 11:32:07;;;;;;;;;;;25.30;71.30;;;;;;5102500;28;19931;-78
2022/06/20 11:34:51;;;;;;;;;;;25.30;71.30;;;;;;5104590;27;19928;-78
2022/06/20 11:37:27;;;;;;;;;;;25.30;71.10;;;;;;5102132;28;19935;-78
2022/06/20 11:40:06;;;;;;;;;;;25.40;70.70;;;;;;5097119;27;19958;-78
2022/06/20 11:42:48;;;;;;;;;;;25.40;71.00;;;;;;5104421;28;19981;-78
2022/06/20 11:45:32;;;;;;;;;;;25.40;70.90;;;;;;5057514;28;20692;-78
2022/06/20 11:48:09;;;;;;;;;;;25.40;71.20;;;;;;5105071;28;19931;-78
2022/06/20 11:50:41;;;;;;;;;;;25.50;71.30;;;;;;5100030;28;19931;-78
2022/06/20 11:53:17;;;;;;;;;;;25.50;70.80;;;;;;5103577;28;20316;-78
2022/06/20 11:55:47;;;;;;;;;;;25.50;70.60;;;;;;5103738;28;19939;-77
2022/06/20 11:58:17;;;;;;;;;;;25.50;70.70;;;;;;5082018;28;22320;-80
2022/06/20 12:00:48;;;;;;;;;;;25.60;70.60;;;;;;5103041;28;20363;-80
2022/06/20 12:03:20;;;;;;;;;;;25.60;71.00;;;;;;5103242;27;19938;-80
2022/06/20 12:05:51;;;;;;;;;;;25.70;70.60;;;;;;5099359;28;20296;-81
2022/06/20 12:08:26;;;;;;;;;;;25.80;70.60;;;;;;5103208;27;20308;-78
2022/06/20 12:10:55;;;;;;;;;;;25.80;70.70;;;;;;5099077;28;20034;-78
2022/06/20 12:13:36;;;;;;;;;;;25.80;70.40;;;;;;5098342;28;19972;-77
2022/06/20 12:16:10;;;;;;;;;;;25.90;70.60;;;;;;5078859;28;19924;-78
2022/06/20 12:23:18;;;;;;;;;;;26.00;70.10;;;;;;5103735;28;19924;-78
2022/06/20 12:24:17;;;;;;;;;;;26.00;70.30;;;;;;5100214;28;19951;-78
2022/06/20 12:26:44;;;;;;;;;;;26.10;70.90;;;;;;5100365;28;20011;-79
2022/06/20 12:29:14;;;;;;;;;;;26.10;71.00;;;;;;5087438;28;19958;-79
2022/06/20 12:31:43;;;;;;;;;;;26.20;71.30;;;;;;5102055;28;19928;-80
2022/06/20 12:34:26;;;;;;;;;;;26.20;71.00;;;;;;5100620;28;20026;-79
2022/06/20 12:37:04;;;;;;;;;;;26.20;71.30;;;;;;5098495;28;19924;-80
2022/06/20 12:39:33;;;;;;;;;;;26.20;72.30;;;;;;5108073;28;19930;-79
2022/06/20 12:42:05;;;;;;;;;;;26.30;72.80;;;;;;5101093;27;19982;-79
2022/06/20 12:44:41;;;;;;;;;;;26.30;73.10;;;;;;5083079;28;19928;-79
2022/06/20 12:47:25;;;;;;;;;;;26.30;73.40;;;;;;5085150;28;20430;-80
2022/06/20 12:50:00;;;;;;;;;;;26.40;73.50;;;;;;5088798;28;19924;-80
2022/06/20 12:52:36;;;;;;;;;;;26.40;73.60;;;;;;5103933;27;19932;-80
2022/06/20 12:55:16;;;;;;;;;;;26.40;74.20;;;;;;5086524;28;21276;-78
2022/06/20 12:57:59;;;;;;;;;;;26.40;75.20;;;;;;5084997;28;20013;-78
2022/06/20 13:00:32;;;;;;;;;;;26.50;75.20;;;;;;5099105;27;19935;-78
2022/06/20 13:03:23;;;;;;;;;;;26.50;75.00;;;;;;5100554;27;19932;-78
2022/06/20 13:06:05;;;;;;;;;;;26.50;74.90;;;;;;5103990;27;19974;-78
2022/06/20 13:08:41;;;;;;;;;;;26.50;74.70;;;;;;5096967;27;20020;-78
2022/06/20 13:11:20;;;;;;;;;;;26.50;74.40;;;;;;5104204;28;19928;-78
2022/06/20 13:14:08;;;;;;;;;;;26.50;74.30;;;;;;5104504;28;19941;-77
2022/06/20 13:16:40;;;;;;;;;;;26.50;73.70;;;;;;5057358;28;19995;-78
2022/06/20 13:19:22;;;;;;;;;;;26.50;74.00;;;;;;5086612;28;19923;-78
2022/06/20 13:21:51;;;;;;;;;;;26.50;73.60;;;;;;5101280;27;19924;-78
2022/06/20 13:24:27;;;;;;;;;;;26.50;73.70;;;;;;5080860;28;19931;-78
2022/06/20 13:27:07;;;;;;;;;;;26.50;73.30;;;;;;5084681;28;20400;-78
2022/06/20 13:29:38;;;;;;;;;;;26.50;73.50;;;;;;5101214;27;19935;-78
2022/06/20 13:32:10;;;;;;;;;;;26.50;73.00;;;;;;5104466;28;19928;-78
2022/06/20 13:34:45;;;;;;;;;;;26.30;73.30;;;;;;5104823;27;19927;-78
2022/06/20 13:37:17;;;;;;;;;;;26.40;73.60;;;;;;5092149;27;20142;-78
2022/06/20 13:39:48;;;;;;;;;;;26.50;73.90;;;;;;5101693;27;19962;-78
2022/06/20 13:42:18;;;;;;;;;;;26.50;73.70;;;;;;5101108;27;20095;-77
2022/06/20 13:44:49;;;;;;;;;;;26.60;73.60;;;;;;5080993;28;20040;-78
2022/06/20 13:47:20;;;;;;;;;;;26.60;73.40;;;;;;5084923;28;19934;-76
2022/06/20 13:49:50;;;;;;;;;;;26.60;73.10;;;;;;5100779;28;19924;-78
2022/06/20 13:52:24;;;;;;;;;;;26.60;72.70;;;;;;5086342;28;19932;-77
2022/06/20 13:54:54;;;;;;;;;;;26.50;72.10;;;;;;5094243;27;21424;-79
2022/06/20 13:57:24;;;;;;;;;;;26.50;72.80;;;;;;5086761;28;19924;-79
2022/06/20 13:59:56;;;;;;;;;;;26.50;72.30;;;;;;5083530;28;19931;-79
2022/06/20 14:02:34;;;;;;;;;;;26.50;72.50;;;;;;5095336;28;19932;-77
2022/06/20 14:05:09;;;;;;;;;;;26.40;71.70;;;;;;5096170;27;19994;-77
2022/06/20 14:07:37;;;;;;;;;;;26.40;72.20;;;;;;5098696;28;21528;-79
2022/06/20 14:10:06;;;;;;;;;;;26.50;72.50;;;;;;5078342;27;21040;-79
2022/06/20 14:12:41;;;;;;;;;;;26.50;72.80;;;;;;5091154;27;19932;-78
2022/06/20 14:15:17;;;;;;;;;;;26.40;72.70;;;;;;5076911;28;20040;-77
2022/06/20 14:17:50;;;;;;;;;;;26.40;73.10;;;;;;5095592;27;19924;-82
2022/06/20 14:20:20;;;;;;;;;;;26.50;73.40;;;;;;5094673;27;19923;-77
2022/06/20 14:22:48;;;;;;;;;;;26.50;73.10;;;;;;5072568;28;20016;-76
2022/06/20 14:25:31;;;;;;;;;;;26.50;73.70;;;;;;5100865;28;19943;-77
2022/06/20 14:27:59;;;;;;;;;;;26.50;73.10;;;;;;5087621;28;22384;-77
2022/06/20 14:30:28;;;;;;;;;;;26.50;72.40;;;;;;5094730;27;19941;-76
2022/06/20 14:32:58;;;;;;;;;;;26.50;72.00;;;;;;5100250;28;19930;-77
2022/06/20 14:35:28;;;;;;;;;;;26.50;72.00;;;;;;5077337;28;19998;-77
2022/06/20 14:37:59;;;;;;;;;;;26.50;71.80;;;;;;5089090;28;19952;-79
2022/06/20 14:40:32;;;;;;;;;;;26.50;71.90;;;;;;5101490;27;19927;-76
2022/06/20 14:43:06;;;;;;;;;;;26.50;72.10;;;;;;5071700;27;20555;-77
2022/06/20 14:45:36;;;;;;;;;;;26.60;72.40;;;;;;5100522;28;19924;-77
2022/06/20 14:48:05;;;;;;;;;;;26.50;72.30;;;;;;5099069;27;20913;-76
2022/06/20 14:50:37;;;;;;;;;;;26.40;72.80;;;;;;5096053;27;19928;-77
2022/06/20 14:53:07;;;;;;;;;;;26.50;72.90;;;;;;5083476;28;20382;-77
2022/06/20 14:55:40;;;;;;;;;;;26.50;73.10;;;;;;5104211;28;20404;-77
2022/06/20 14:58:14;;;;;;;;;;;26.50;73.10;;;;;;5099881;28;19957;-77
2022/06/20 15:00:44;;;;;;;;;;;26.50;73.10;;;;;;5080389;28;19924;-77